»·PEaware :: AAL4458 KLAX-KSNA

AAL4458 :: KLAX-KSNA

FLIGHT INFORMATION

Flight Status: Arrived
Operator:
American Airlines
More flights by this operator :: More flights under this callsign
Pilot: Massimo D. (17924)
Aircraft: BOEING 737-800
(B738)
More flights by this aircraft type
Origin: KLAX Los Angeles Intl
United States
Destination: KSNA John Wayne-Orange Co
United States
More flights between these airports :: More routes between these airports
Route: +LAXX1 SLI
File this flight plan on PilotEdge
Remarks: AAL 4458 / L I6 RATING
Altitude:
(Current/Filed)
5,000ft
Speed:
(Current/Filed)
0kts
Departed: 11-Apr-18 07:50 AM
Arrived: 11-Apr-18 08:37 AM
Distance/Time
Traveled:
31nm/0:47
Distance/Time
To Go:
Arrived

Flight Plot

Page will automatically refresh every two minutes.

Flight plan parsing failed; only flown route is shown


Map Options




Map Legend


Flown Route
Filed Route
Departure Airport
Arrival Airport
Navaid (VOR, NDB)
Fix

Horizontal Profiles

Position Reports

Time Latitude Longitude Heading Altitude Ground
Speed
11-Apr-18 07:05 33.940042 -118.401856 355 133ft 0kts
11-Apr-18 07:06 33.940042 -118.401856 355 133ft 0kts
11-Apr-18 07:07 33.940042 -118.401856 355 133ft 0kts
11-Apr-18 07:08 33.940042 -118.401856 355 133ft 0kts
11-Apr-18 07:09 33.940042 -118.401856 355 133ft 0kts
11-Apr-18 07:10 33.940042 -118.401856 355 133ft 0kts
11-Apr-18 07:11 33.940042 -118.401856 355 133ft 0kts
11-Apr-18 07:12 33.940042 -118.401856 355 133ft 0kts
11-Apr-18 07:13 33.940042 -118.401856 355 133ft 0kts
11-Apr-18 07:14 33.940042 -118.401856 355 133ft 0kts
11-Apr-18 07:15 33.940042 -118.401856 355 133ft 0kts
11-Apr-18 07:16 33.940042 -118.401856 355 133ft 0kts
11-Apr-18 07:17 33.940042 -118.401856 355 133ft 0kts
11-Apr-18 07:18 33.940042 -118.401856 355 133ft 0kts
11-Apr-18 07:19 33.940042 -118.401856 355 133ft 0kts
11-Apr-18 07:20 33.940042 -118.401856 355 133ft 0kts
11-Apr-18 07:21 33.940042 -118.401856 355 133ft 0kts
11-Apr-18 07:22 33.940042 -118.401856 355 133ft 0kts
11-Apr-18 07:23 33.940042 -118.401856 355 133ft 0kts
11-Apr-18 07:24 33.940042 -118.401856 355 133ft 0kts
11-Apr-18 07:25 33.940042 -118.401856 355 133ft 0kts
11-Apr-18 07:26 33.940042 -118.401856 355 133ft 0kts
11-Apr-18 07:27 33.940042 -118.401856 355 133ft 0kts
11-Apr-18 07:28 33.940042 -118.401856 355 133ft 0kts
11-Apr-18 07:29 33.940042 -118.401856 355 133ft 0kts
11-Apr-18 07:30 33.939691 -118.401820 355 133ft 0kts
11-Apr-18 07:31 33.939691 -118.401820 355 133ft 0kts
11-Apr-18 07:32 33.939692 -118.401820 355 133ft 0kts
11-Apr-18 07:33 33.939692 -118.401820 355 133ft 0kts
11-Apr-18 07:34 33.939699 -118.401820 359 133ft 0kts
11-Apr-18 07:35 33.939706 -118.401820 359 133ft 0kts
11-Apr-18 07:36 33.939721 -118.401820 359 133ft 0kts
11-Apr-18 07:37 33.939721 -118.401820 359 133ft 0kts
11-Apr-18 07:38 33.939721 -118.401820 359 133ft 0kts
11-Apr-18 07:39 33.939721 -118.401820 359 133ft 0kts
11-Apr-18 07:40 33.939811 -118.401724 62 133ft 4kts
11-Apr-18 07:41 33.939036 -118.400289 133 133ft 7kts
11-Apr-18 07:42 33.939177 -118.396194 83 133ft 13kts
11-Apr-18 07:43 33.939661 -118.391549 83 133ft 14kts
11-Apr-18 07:44 33.940145 -118.386709 83 133ft 14kts
11-Apr-18 07:45 33.940105 -118.383315 156 133ft 5kts
11-Apr-18 07:46 33.938359 -118.383011 173 133ft 0kts
11-Apr-18 07:47 33.938359 -118.383011 173 133ft 0kts
11-Apr-18 07:48 33.937276 -118.383590 260 133ft 16kts
11-Apr-18 07:49 33.933407 -118.424797 265 522ft 209kts
11-Apr-18 07:50 33.910583 -118.487837 233 2689ft 213kts
11-Apr-18 07:51 33.875459 -118.544723 226 4950ft 201kts
11-Apr-18 07:52 33.827995 -118.556863 147 4694ft 194kts
11-Apr-18 07:53 33.775394 -118.551901 175 4978ft 189kts
11-Apr-18 07:54 33.717885 -118.552217 179 4987ft 216kts
11-Apr-18 07:55 33.657906 -118.555641 181 4985ft 216kts
11-Apr-18 07:56 33.611098 -118.522448 118 4983ft 210kts
11-Apr-18 07:57 33.609009 -118.453336 86 4955ft 210kts
11-Apr-18 07:58 33.612862 -118.383361 85 4955ft 215kts
11-Apr-18 07:59 33.616716 -118.311705 85 4956ft 216kts
11-Apr-18 08:00 33.620585 -118.240011 85 4975ft 216kts
11-Apr-18 08:01 33.624447 -118.168452 85 4949ft 215kts
11-Apr-18 08:02 33.628365 -118.096523 85 4948ft 215kts
11-Apr-18 08:03 33.657615 -118.039887 31 4946ft 215kts
11-Apr-18 08:04 33.708462 -118.002310 31 4948ft 215kts
11-Apr-18 08:05 33.759707 -117.964598 31 4975ft 216kts
11-Apr-18 08:06 33.810808 -117.926911 31 4978ft 213kts
11-Apr-18 08:07 33.860892 -117.888709 39 4970ft 214kts
11-Apr-18 08:08 33.858166 -117.826037 146 4987ft 220kts
11-Apr-18 08:09 33.801866 -117.837810 211 4972ft 220kts
11-Apr-18 08:10 33.750600 -117.875435 211 4975ft 216kts
11-Apr-18 08:11 33.699212 -117.913154 211 4975ft 217kts
11-Apr-18 08:12 33.647995 -117.950801 210 4975ft 217kts
11-Apr-18 08:13 33.596683 -117.988656 211 4975ft 216kts
11-Apr-18 08:14 33.549347 -117.979386 90 4309ft 215kts
11-Apr-18 08:15 33.595360 -117.964935 338 3970ft 213kts
11-Apr-18 08:16 33.650559 -117.991402 337 3975ft 213kts
11-Apr-18 08:17 33.705525 -118.017727 338 3949ft 212kts
11-Apr-18 08:18 33.760447 -118.043502 348 3941ft 212kts
11-Apr-18 08:19 33.803666 -118.005442 62 3950ft 209kts
11-Apr-18 08:20 33.829153 -117.942501 63 3975ft 212kts
11-Apr-18 08:21 33.854971 -117.878502 62 3975ft 212kts
11-Apr-18 08:22 33.880506 -117.814676 63 3975ft 212kts
11-Apr-18 08:23 33.906173 -117.751242 62 4001ft 209kts
11-Apr-18 08:24 33.939615 -117.695636 28 4028ft 212kts
11-Apr-18 08:25 33.992798 -117.664647 21 4005ft 213kts
11-Apr-18 08:26 34.033353 -117.698979 266 3634ft 211kts
11-Apr-18 08:27 33.990683 -117.736361 188 3519ft 213kts
11-Apr-18 08:28 33.937186 -117.732543 173 3483ft 176kts
11-Apr-18 08:29 33.890734 -117.736614 202 3487ft 163kts
11-Apr-18 08:30 33.850855 -117.760084 205 3203ft 159kts
11-Apr-18 08:31 33.811838 -117.784024 205 2628ft 154kts
11-Apr-18 08:32 33.774394 -117.807017 204 2105ft 151kts
11-Apr-18 08:33 33.737370 -117.829585 207 1322ft 149kts
11-Apr-18 08:34 33.701025 -117.852713 207 524ft 147kts
11-Apr-18 08:35 33.672141 -117.871013 207 64ft 41kts
11-Apr-18 08:36 33.669602 -117.872044 148 64ft 0kts
11-Apr-18 08:37 33.669393 -117.871833 136 64ft 5kts
11-Apr-18 08:38 33.670442 -117.869597 40 64ft 17kts
11-Apr-18 08:39 33.674869 -117.866007 27 64ft 16kts
11-Apr-18 08:40 33.675094 -117.865138 116 64ft 0kts
11-Apr-18 08:41 33.675094 -117.865138 116 64ft 0kts
11-Apr-18 08:42 33.675094 -117.865138 116 64ft 0kts

Navigation Log

Ident Type
Flight plan parsing failed, navigation log unavailable